Terminal Aerodrome Forecast
Issued by NWS Jackson, MS

Home | Current Version | Previous Version | Text Only | Print | Product List | Glossary On
Versions: 1 2 3 4 5 6 7 8 9 10 11 12 13 14 15 16 17 18
492
FTUS44 KJAN 251738
TAFHBG
TAF
KHBG 251738Z 2518/2618 07006KT P6SM VCSH FEW029
     FM252300 14003KT P6SM SKC
     FM260900 VRB03KT 4SM BR SCT003
     FM261500 12005KT P6SM FEW250=

USA.gov is the U.S. government's official web portal to all federal, state and local government web resources and services.